Championnats de France Elite

Nationale

CHARTRES

Du Mardi 08 Avril 2014 au Dimanche 13 Avril 2014

Bassin de 50m

100 Papillon Messieurs

Séries

Nom Année Club Pays Temps Points Niv.
1 METELLA Mehdy 1992 CN MARSEILLE FRA 0:53:80 1313
2 STRAVIUS Jérémy 1988 AMIENS METROPOLE NAT. FRA 0:53:86 1311
3 LEMAIRE Paul 1991 DAUPHINS TOULOUSE OEC FRA 0:54:24 1299
4 COELHO Jordan 1992 ETAMPES NATATION FRA 0:54:48 1292
5 LACOURT Camille 1985 CN MARSEILLE FRA 0:54:64 1287
6 AUBRY Flavien 1994 U.S CRETEIL NATATION FRA 0:54:89 1279
7 MAISONNEUVE Marvin 1991 MONTAUBAN NATATION FRA 0:54:96 1277
8 VILACECA Thomas 1990 MONTAUBAN NATATION FRA 0:55:04 1274
9 POTHAIN Jordan 1994 NAUTIC CLUB ALP'38 FRA 0:55:05 1274
10 SASSOT Romain 1986 CN CHALON-SUR-SAONE FRA 0:55:27 1267
11 GRANDJEAN Yoris 1989 CN MARSEILLE FRA 0:55:27 1267
12 LANDRY Romain 1989 DAUPHINS TOULOUSE OEC FRA 0:55:35 1265
13 PIJULET Paul 1994 AQUA CLUB PONTAULT-ROISSY FRA 0:55:53 1259
14 MARTIN Quentin 1991 FORBACH AGGLOMÉRATION NATATION FRA 0:55:54 1259
15 ANDRIEN Maxime 1994 SO MILLAU N FRA 0:55:75 1252
16 SCHMITT Emilien 1994 AVENIR NATATION BESANÇON FRA 0:55:75 1252
17 RENARD Cédric 1991 SB BORDEAUX BASTIDE FRA 0:55:85 1249
18 BOLE Sandy 1994 AS MONACO NATATION FRA 0:55:99 1245
19 SAHNOUNE Oussama 1992 ALGÉRIE ALG 0:56:06 1243
20 BADRE Jérémy 1990 MONTAUBAN NATATION FRA 0:56:11 1241
21 ATSU Jonathan 1996 BAYONNE-AVIRON BAYONNAIS FRA 0:56:18 1239
22 SANSORNY Valentin 1990 CA PIERRELATTE ASCEAC FRA 0:56:28 1236
23 COSTE Camille 1989 TOULOUSE OLYMPIQUE AÉRO FRA 0:56:30 1235
24 LAMBERT Hugo 1993 CN CHALON-SUR-SAONE FRA 0:56:31 1235
25 BACHMANN Mathieu 1996 OLYMPIC NICE NATATION FRA 0:56:47 1230
26 MORIN Alexandre 1990 GIRONDINS BORDEAUX FRA 0:56:53 1228
27 PEDRO-LEAL Dorian 1996 MEGAQUARIUS CLUB GUYANE FRA 0:56:57 1227
28 TORMENTO Hugo 1993 MULHOUSE ON FRA 0:56:62 1226
29 BRAS Hugo 1992 VILLEURBANNE NATATION FRA 0:56:66 1224
30 GUERIN Simon 1992 DAUPHINS TOULOUSE OEC FRA 0:56:70 1223
31 RALEFY Anthonny 1995 CN MARSEILLE FRA 0:56:73 1222
32 CHARPIOT Clément 1986 AQUATIC CLUB BOURGES FRA 0:56:77 1221
33 SHAHIN Bilal 1996 SN MONTGERON FRA 0:56:77 1221
34 TURPIN Fabrice 1995 CN MELUN VAL DE SEINE FRA 0:56:96 1215
35 LAURENDEAU Antoine 1995 GIRONDINS BORDEAUX FRA 0:56:97 1215
36 MROWINSKI Romain 1994 CN CÉVENNES ALÈS FRA 0:57:06 1212
37 CARRAT Victor 1993 CN GUÉRET FRA 0:57:14 1210
38 MERLIN Hugo 1995 ALLIANCE DIJON NATATION FRA 0:57:25 1207
39 TRUCHOT Florian 1996 ASPTT ORLÉANS FRA 0:57:26 1206
40 PEMA Pelden 1996 CERGY PONTOISE NATATION FRA 0:57:32 1204
41 CARDEY Léo 1996 U.S CRETEIL NATATION FRA 0:57:39 1202
42 NAVARRO David-Nicolas 1991 CN CHALON-SUR-SAONE FRA 0:57:39 1202
43 MELLINAS Alexis 1995 CN CÉVENNES ALÈS FRA 0:57:46 1200
44 QUAMMIE Qulaüs 1995 MEGAQUARIUS CLUB GUYANE FRA 0:57:46 1200
45 TAILLAS Thibaut 1996 ST-ETIENNE NATATION FRA 0:57:47 1200
46 GARZOTTO Guillaume 1997 CN ANTIBES FRA 0:57:48 1200
47 BARONI Alex 1992 MONTAUBAN NATATION FRA 0:57:51 1199
48 DAWS Christopher 1997 DAUPHINS TOULOUSE OEC FRA 0:57:53 1198
49 DANIEL Jean 1993 STADE CLERMONT NATATION FRA 0:57:54 1198
50 BOUMALI Jugurtha* 1991 U.S CRETEIL NATATION FRA 0:57:55 1197
51 ARNOUX Laurent 1995 CN MARSEILLE FRA 0:57:62 1195
52 PATAMIA Jean-Baptiste 1993 CN ANTIBES FRA 0:57:65 1194
53 SAUREL Arthur 1995 DAUPHINS TOULOUSE OEC FRA 0:57:65 1194
54 DRAY Félix 1993 NANTES NATATION FRA 0:57:67 1194
55 LEVRIER Jérémy 1993 STADE CLERMONT NATATION FRA 0:57:71 1193
56 DANHO Thibaut 1994 ASPTT GRAND TOULOUSE FRA 0:57:77 1191
57 D'ADDA Alexandre 1997 LAGNY-SUR-MARNE NATATION FRA 0:57:77 1191
58 COIFFARD Florian 1995 DAUPHINS TOULOUSE OEC FRA 0:57:79 1190
59 LUCIAN Kevin 1997 ASEC ST-PAUL LA RÉUNION FRA 0:57:80 1190
60 LONCKE Quentin 1999 CHARTRES METROPOLE NAT FRA 0:57:82 1189
61 VIGROUX Sébastien 1993 MULHOUSE ON FRA 0:57:88 1188
62 PHILAIRE Victor 1996 SU AGEN FRA 0:57:97 1185
63 JANY Brian 1993 DAUPHINS TOULOUSE OEC FRA 0:58:00 1184
64 GRAS Geoffrey 1994 LILLE MÉTROPOLE NATATION FRA 0:58:08 1182
65 MARSAU Matthias 1997 CANET 66 NATATION FRA 0:58:09 1181
66 ABILY Jean-Baptiste 1997 CANET 66 NATATION FRA 0:58:11 1181
67 DENIS Anthony 1990 CA ORSAY FRA 0:58:26 1176
68 CARISSAN Ludovic 1994 E.P SEMEAC TARBES NAT FRA 0:58:27 1176
69 HENRY ARRENOUS Pierre 1998 ASPTT POITIERS FRA 0:58:30 1175
70 DELAFONT Vincent 1988 CNO ST-GERMAIN-EN-LAYE FRA 0:58:31 1175
71 BOUTON Axel 1994 CN MARSEILLE FRA 0:58:32 1174
72 HOPCHET Maxandre 1995 DENAIN NAT. PORTE DU HAINAUT FRA 0:58:33 1174
73 POT Esteban 1997 DUNKERQUE NATATION FRA 0:58:50 1169
74 MOULON William 1998 OLYMPIC NICE NATATION FRA 0:58:61 1166
75 CADIAT Maxime 1997 CN ANTIBES FRA 0:58:65 1165
76 PERRILLON Mathieu 1998 CN BREST FRA 0:58:73 1162
77 LAUNOIS Thomas 1994 REIMS NATATION 89 FRA 0:58:77 1161
78 LEGOUT Pierre 1996 AMIENS METROPOLE NAT. FRA 0:58:80 1160
79 PACAUD Antoine 1997 RED STAR CLUB CHAMPIGNY FRA 0:58:83 1159
80 JAMMES Thomas 1996 SO MILLAU N FRA 0:58:86 1158
81 LEFEVRE Jeremie 1997 UNION QUIMPER NATATION FRA 0:58:93 1156
82 ABILY Augustin 1998 CANET 66 NATATION FRA 0:58:97 1155
83 BRANTU Benjamin 1995 JN COMPIÈGNE FRA 0:58:97 1155
84 DUSSART Gaëtan 1992 ASS SPORTIVE BOUVINES FRA 0:59:03 1153
85 EZZINA Youssef 1996 MONTPELLIER ANUC FRA 0:59:03 1153
86 CACCIOTTOLO Sacha 1996 AQUA VALLÉE-DE-CHEVREUSE FRA 0:59:04 1153
87 TRILLAT Léo 1998 CN POISSY FRA 0:59:07 1152
88 JEANNE Dorian 1998 CNP DE SAINT-LO FRA 0:59:13 1150
89 FOUILLE Martin 1997 CS BOURGOIN-JALLIEU NATATION FRA 0:59:18 1149
90 MALLET Gauthier 1995 NAUTIQUE ENTENTE CHÂLONS FRA 0:59:19 1149
91 THOMSON Michael 1994 ASPTT GRAND TOULOUSE FRA 0:59:20 1148
92 HORTER Nicolas 1995 MULHOUSE ON FRA 0:59:22 1148
93 MORLIN Erwan 1997 LYON NATATION FRA 0:59:29 1146
94 SAM Louis 1998 ALBI SPORTS AQUATIQUES FRA 0:59:30 1145
95 SIRVENT Benjamin 1997 ENFANTS DU RHÔNE VALENCE FRA 0:59:33 1144
96 MASSE Xavier 1997 LA ROCHE-SUR-YON NATATION FRA 0:59:34 1144
97 SERAICHE Yacin 1997 DAUPHINS TOULOUSE OEC FRA 0:59:37 1143
98 SGHAIER Seifeddine 1993 NANTES NATATION FRA 0:59:40 1142
99 VIGOUROUX Romain 1994 NAUTIC CLUB NÎMES FRA 0:59:42 1142
100 CONTARDO Felipe 1995 MULHOUSE ON FRA 0:59:42 1142
101 USCLAT Marc 1998 TRITON CLUB BELLEVILLE FRA 0:59:52 1139
102 PINON Julien 1998 CANET 66 NATATION FRA 0:59:65 1135
103 GUILLOT Victor 1998 BEAUCAIRE TARASCON AC FRA 0:59:69 1134
104 TONNEAU Guillaume 1998 CN ST-MICHEL-SUR-ORGE FRA 0:59:70 1134
105 WENZEL Lucas 1996 MONTPELLIER PAILLADE NATATION FRA 0:59:70 1134
106 VITRY Ludovic 1998 C.S MONTERELAIS NATATION FRA 0:59:70 1134
107 BERNARDINI Mathieu 1998 STADE FRANÇAIS O COURBEVOIE FRA 0:59:72 1133
108 L'HULLIER Armand 1997 CN MARSEILLE FRA 0:59:75 1132
109 DEMERIN Antoine 1998 STADE FRANÇAIS O COURBEVOIE FRA 0:59:77 1131
110 MARINETTE Samuel 1999 CNIC LES SQUALES FRA 0:59:82 1130
111 MENDES Romain 1998 AQUA CLUB PONTAULT-ROISSY FRA 0:59:84 1129
112 SARAZIN Théo 2000 CNO ST-GERMAIN-EN-LAYE FRA 1:00:13 1121
113 PHEDOL Swan 1996 MULHOUSE ON FRA 1:00:14 1121
114 QUIERTANT Yann 1989 STADE FRANÇAIS O COURBEVOIE FRA 1:00:15 1120
115 CAPITAINE Thibaut 1993 CERGY PONTOISE NATATION FRA 1:00:28 1117
116 DU TEILLEUL Martin 1998 CERCLE DES NAGEURS ST-BRIEUC FRA 1:00:45 1112
117 DULONDEL Louis 1998 ESPADON GRAND-QUEVILLY FRA 1:00:51 1110
118 CHOUMILOFF Sacha 1999 CN CHALON-SUR-SAONE FRA 1:00:56 1108
119 JACOB Maximilien 1998 MONTPELLIER ANUC FRA 1:00:72 1104
120 SELVA Alexandre 1999 CANET 66 NATATION FRA 1:00:79 1102
121 ROUX Charly 1998 NAUTIC CLUB NÎMES FRA 1:00:84 1100
122 LE FLOCH Mathieu 2000 NANTES NATATION FRA 1:00:94 1097
123 LETELLIER Quentin 1998 CN ANTIBES FRA 1:00:98 1096
124 FLAHAULT Simon 1998 DUNKERQUE NATATION FRA 1:01:03 1095
125 BUSSIERE Theo 1995 CN MARSEILLE FRA 1:01:14 1092
126 PERRIN William 1997 CN AVIGNON FRA 1:01:22 1089
127 DUICAN Radu 1997 ASPTT NANTES FRA 1:01:31 1087
128 KOINDREDI Goroco 1999 AMSL FRÉJUS FRA 1:01:33 1086
129 SERBOUH Yanis 1999 DAUPHINS TOULOUSE OEC FRA 1:01:33 1086
130 ALLEMANDET Mathieu 1998 CN DOLE & REG FRA 1:01:46 1083
131 AULIDI Hugo 1998 GIRONDINS BORDEAUX FRA 1:01:47 1082
132 CHAFFARD Clément 1998 CERGY PONTOISE NATATION FRA 1:01:63 1078
133 PICARD Anthony 1999 SC THIONVILLE FRA 1:01:71 1075
134 TATON-DESAGES Théo 1997 BORDEAUX ÉTUDIANTS CLUB FRA 1:01:80 1073
135 ABOSSOLO-FOH Lucas 1998 AC DÉCINES FRA 1:01:83 1072
136 SERGEANT Ugo 1998 SC THIONVILLE FRA 1:02:01 1067
137 PANAGET Esteban 2000 LAGARDERE PARIS RACING FRA 1:02:13 1063
138 LAMBERT Nicolas 1999 TOULON VAR NATATION FRA 1:02:13 1063
139 LAPOUS Simon 1998 MONTPELLIER ANUC FRA 1:02:26 1060
140 RADU Ionut 1999 ASPTT NANTES FRA 1:02:41 1055
141 ULM Justin 1998 AC HYÈRES FRA 1:02:41 1055
142 PIRON Thomas 2000 VICHY VAL D'ALLIER NATATION FRA 1:02:41 1055
143 LAVENTURE Jordan 2000 LONGVILLIERS CLUB FRA 1:02:42 1055
144 DEVILLIER Kélian 1999 VAL DE GRAY NATATION FRA 1:02:57 1051
145 RABIER Corentin 1998 CNO ST-GERMAIN-EN-LAYE FRA 1:02:67 1048
146 MILLET Arthur 2000 CN CHALON-SUR-SAONE FRA 1:02:87 1042
147 CABIOCH Clément 2000 AC HYÈRES FRA 1:02:94 1041
148 BOILEAU Samson 1999 MULHOUSE ON FRA 1:02:96 1040
149 STOFLETH Arnaud 2000 STADE CLERMONT NATATION FRA 1:03:02 1038
150 DA SILVA Anderson 1998 LAGARDERE PARIS RACING FRA 1:03:15 1035
151 LEGOUT Antoine 1998 AMIENS METROPOLE NAT. FRA 1:03:56 1023
152 THIBAULT Maxime 1999 RSC MONTREUIL FRA 1:03:73 1018
153 IONESCU Stefan 2000 SN HAGUENAU FRA 1:03:89 1014
154 MILLION Curtis 2000 COULOMMIERS NATATION FRA 1:04:06 1009
155 KNAUPP Alexandre 2000 SAINT-RAPHAEL NATATION FRA 1:04:70 992
156 CABIOCH Bastien 1998 AC HYÈRES FRA 1:04:79 989
157 COMTE Sergueï 2000 LYON NATATION FRA 1:04:85 988
158 FOUCHER Gabriel 1999 CN ASNIÈRES FRA 1:04:96 985
159 HORTE Emilien 2000 EA NOGENT-VILLERS FRA 1:05:05 982
160 GUILLOT Remy 1998 LAGNY-SUR-MARNE NATATION FRA 1:05:45 971
161 LERIDER Yannis 2000 FRANCOIS NATATION CLUB FRA 1:05:57 968
162 GHAFFARI Mohamed-Aziz 2000 CSM CLAMART FRA 1:06:21 951
163 BOUCHAUT Joris 1995 DAUPHINS TOULOUSE OEC FRA - Disq.
164 REGENT Vince 1993 DAUPHINS TOULOUSE OEC FRA - Disq.
165 VANCAPPEL Victor 1998 DUNKERQUE NATATION FRA - Disq.
166 LENGLART Alexandre 1998 DUNKERQUE NATATION FRA - Disq.
167 BRAND Thibauld 1997 SCA 2000 EVRY FRA - Disq.
168 BOLE Scott 1996 AS MONACO NATATION FRA - Disq.
169 ARNAUD Charles 1999 CN GAP FRA - Disq.
170 COUDRY Florent 1992 LYON NATATION FRA - Disq.

Finale A

Nom Année Club Pays Temps Points Niv.
1 METELLA Mehdy 1992 CN MARSEILLE FRA 0:52:56 1353
2 STRAVIUS Jérémy 1988 AMIENS METROPOLE NAT. FRA 0:52:78 1346
3 LACOURT Camille 1985 CN MARSEILLE FRA 0:53:64 1318
4 COELHO Jordan 1992 ETAMPES NATATION FRA 0:53:86 1311
5 LEMAIRE Paul 1991 DAUPHINS TOULOUSE OEC FRA 0:54:10 1304
6 VILACECA Thomas 1990 MONTAUBAN NATATION FRA 0:54:15 1302
7 SASSOT Romain 1986 CN CHALON-SUR-SAONE FRA 0:54:22 1300
8 MAISONNEUVE Marvin 1991 MONTAUBAN NATATION FRA 0:54:97 1276
9 GRANDJEAN Yoris 1989 CN MARSEILLE FRA 0:55:55 1259
10 AUBRY Flavien 1994 U.S CRETEIL NATATION FRA 0:55:56 1258
11 BACHMANN Mathieu 1996 OLYMPIC NICE NATATION FRA 0:56:36 1234
12 PEDRO-LEAL Dorian 1996 MEGAQUARIUS CLUB GUYANE FRA 0:56:36 1234
13 GARZOTTO Guillaume 1997 CN ANTIBES FRA 0:56:44 1231
14 ATSU Jonathan 1996 BAYONNE-AVIRON BAYONNAIS FRA 0:56:75 1222
15 CARDEY Léo 1996 U.S CRETEIL NATATION FRA 0:57:00 1214
16 SHAHIN Bilal 1996 SN MONTGERON FRA 0:57:05 1213
17 PEMA Pelden 1996 CERGY PONTOISE NATATION FRA 0:57:09 1211
18 HENRY ARRENOUS Pierre 1998 ASPTT POITIERS FRA 0:57:15 1210
19 TAILLAS Thibaut 1996 ST-ETIENNE NATATION FRA 0:57:44 1201
20 TRUCHOT Florian 1996 ASPTT ORLÉANS FRA 0:57:82 1189
21 JAMMES Thomas 1996 SO MILLAU N FRA 0:57:94 1186
22 LONCKE Quentin 1999 CHARTRES METROPOLE NAT FRA 0:58:02 1183
23 ABILY Augustin 1998 CANET 66 NATATION FRA 0:58:43 1171
24 DEMERIN Antoine 1998 STADE FRANÇAIS O COURBEVOIE FRA 0:58:51 1169
25 JEANNE Dorian 1998 CNP DE SAINT-LO FRA 0:58:66 1164
26 MOULON William 1998 OLYMPIC NICE NATATION FRA 0:58:67 1164
27 SAM Louis 1998 ALBI SPORTS AQUATIQUES FRA 0:58:88 1158
28 USCLAT Marc 1998 TRITON CLUB BELLEVILLE FRA 0:59:03 1153
29 PERRILLON Mathieu 1998 CN BREST FRA 0:59:57 1137
30 TRILLAT Léo 1998 CN POISSY FRA 1:01:77 1074

1/2 Finale (1)

Nom Année Club Pays Temps Points Niv.
1 STRAVIUS Jérémy 1988 AMIENS METROPOLE NAT. FRA 0:53:54 1321
2 COELHO Jordan 1992 ETAMPES NATATION FRA 0:53:67 1317
3 VILACECA Thomas 1990 MONTAUBAN NATATION FRA 0:54:30 1297
4 GRANDJEAN Yoris 1989 CN MARSEILLE FRA 0:54:58 1289
5 AUBRY Flavien 1994 U.S CRETEIL NATATION FRA 0:54:60 1288
6 LANDRY Romain 1989 DAUPHINS TOULOUSE OEC FRA 0:54:85 1280
7 BOLE Sandy 1994 AS MONACO NATATION FRA 0:55:73 1253
8 SCHMITT Emilien 1994 AVENIR NATATION BESANÇON FRA 0:55:84 1250
9 MARTIN Quentin 1991 FORBACH AGGLOMÉRATION NATATION FRA 0:56:15 1240
10 BACHMANN Mathieu 1996 OLYMPIC NICE NATATION FRA 0:56:34 1234
11 SANSORNY Valentin 1990 CA PIERRELATTE ASCEAC FRA 0:56:74 1222
12 SHAHIN Bilal 1996 SN MONTGERON FRA 0:56:75 1222
13 PEMA Pelden 1996 CERGY PONTOISE NATATION FRA 0:56:77 1221
14 HENRY ARRENOUS Pierre 1998 ASPTT POITIERS FRA 0:57:22 1207
15 TAILLAS Thibaut 1996 ST-ETIENNE NATATION FRA 0:57:40 1202
16 JAMMES Thomas 1996 SO MILLAU N FRA 0:57:65 1194
17 LUCIAN Kevin 1997 ASEC ST-PAUL LA RÉUNION FRA 0:57:86 1188
18 POT Esteban 1997 DUNKERQUE NATATION FRA 0:58:32 1174
19 DAWS Christopher 1997 DAUPHINS TOULOUSE OEC FRA 0:58:40 1172
20 LEGOUT Pierre 1996 AMIENS METROPOLE NAT. FRA 0:58:64 1165
21 MARSAU Matthias 1997 CANET 66 NATATION FRA 0:58:73 1162
22 PERRILLON Mathieu 1998 CN BREST FRA 0:58:92 1157
23 SAM Louis 1998 ALBI SPORTS AQUATIQUES FRA 0:59:03 1153
24 TRILLAT Léo 1998 CN POISSY FRA 0:59:31 1145
25 TONNEAU Guillaume 1998 CN ST-MICHEL-SUR-ORGE FRA 0:59:32 1145
26 DULONDEL Louis 1998 ESPADON GRAND-QUEVILLY FRA 0:59:64 1135
27 BERNARDINI Mathieu 1998 STADE FRANÇAIS O COURBEVOIE FRA 0:59:87 1129
28 MARINETTE Samuel 1999 CNIC LES SQUALES FRA 0:59:87 1129
29 PINON Julien 1998 CANET 66 NATATION FRA 1:00:11 1122
30 SARAZIN Théo 2000 CNO ST-GERMAIN-EN-LAYE FRA 1:00:23 1118

1/2 Finale (2)

Nom Année Club Pays Temps Points Niv.
1 METELLA Mehdy 1992 CN MARSEILLE FRA 0:53:79 1313
2 LEMAIRE Paul 1991 DAUPHINS TOULOUSE OEC FRA 0:54:14 1302
3 LACOURT Camille 1985 CN MARSEILLE FRA 0:54:30 1297
4 SASSOT Romain 1986 CN CHALON-SUR-SAONE FRA 0:54:33 1296
5 MAISONNEUVE Marvin 1991 MONTAUBAN NATATION FRA 0:54:45 1293
6 POTHAIN Jordan 1994 NAUTIC CLUB ALP'38 FRA 0:55:13 1272
7 PIJULET Paul 1994 AQUA CLUB PONTAULT-ROISSY FRA 0:55:38 1264
8 ANDRIEN Maxime 1994 SO MILLAU N FRA 0:55:71 1254
9 RENARD Cédric 1991 SB BORDEAUX BASTIDE FRA 0:55:91 1247
10 GARZOTTO Guillaume 1997 CN ANTIBES FRA 0:56:35 1234
11 ATSU Jonathan 1996 BAYONNE-AVIRON BAYONNAIS FRA 0:56:61 1226
12 BADRE Jérémy 1990 MONTAUBAN NATATION FRA 0:56:68 1224
13 PEDRO-LEAL Dorian 1996 MEGAQUARIUS CLUB GUYANE FRA 0:56:87 1218
14 CARDEY Léo 1996 U.S CRETEIL NATATION FRA 0:57:21 1208
15 TRUCHOT Florian 1996 ASPTT ORLÉANS FRA 0:57:28 1206
16 PHILAIRE Victor 1996 SU AGEN FRA 0:57:95 1185
17 LONCKE Quentin 1999 CHARTRES METROPOLE NAT FRA 0:58:33 1174
18 MOULON William 1998 OLYMPIC NICE NATATION FRA 0:58:36 1173
19 D'ADDA Alexandre 1997 LAGNY-SUR-MARNE NATATION FRA 0:58:46 1170
20 ABILY Augustin 1998 CANET 66 NATATION FRA 0:58:55 1168
21 ABILY Jean-Baptiste 1997 CANET 66 NATATION FRA 0:58:64 1165
22 CADIAT Maxime 1997 CN ANTIBES FRA 0:58:75 1162
23 USCLAT Marc 1998 TRITON CLUB BELLEVILLE FRA 0:58:96 1155
24 DEMERIN Antoine 1998 STADE FRANÇAIS O COURBEVOIE FRA 0:58:97 1155
25 PACAUD Antoine 1997 RED STAR CLUB CHAMPIGNY FRA 0:58:99 1154
26 JEANNE Dorian 1998 CNP DE SAINT-LO FRA 0:59:02 1154
27 GUILLOT Victor 1998 BEAUCAIRE TARASCON AC FRA 0:59:51 1139
28 VITRY Ludovic 1998 C.S MONTERELAIS NATATION FRA 0:59:56 1138
29 MENDES Romain 1998 AQUA CLUB PONTAULT-ROISSY FRA 1:00:02 1124
30 DU TEILLEUL Martin 1998 CERCLE DES NAGEURS ST-BRIEUC FRA 1:00:21 1119